sensor_id;sensor_type;location;lat;lon;timestamp;P1;durP1;ratioP1;P2;durP2;ratioP2
20034;SDS011;10178;48.034;9.800;2023-04-24T00:01:28;2.13;;;1.10;;
20034;SDS011;10178;48.034;9.800;2023-04-24T00:03:54;1.58;;;0.70;;
20034;SDS011;10178;48.034;9.800;2023-04-24T00:06:24;1.00;;;0.90;;
20034;SDS011;10178;48.034;9.800;2023-04-24T00:08:59;0.60;;;0.60;;
20034;SDS011;10178;48.034;9.800;2023-04-24T00:11:25;2.00;;;0.70;;
20034;SDS011;10178;48.034;9.800;2023-04-24T00:13:51;0.75;;;0.75;;
20034;SDS011;10178;48.034;9.800;2023-04-24T00:16:17;0.82;;;0.70;;
20034;SDS011;10178;48.034;9.800;2023-04-24T00:18:43;1.25;;;0.63;;
20034;SDS011;10178;48.034;9.800;2023-04-24T00:21:10;1.20;;;0.80;;
20034;SDS011;10178;48.034;9.800;2023-04-24T00:23:36;1.02;;;0.70;;
20034;SDS011;10178;48.034;9.800;2023-04-24T00:26:01;1.15;;;0.80;;
20034;SDS011;10178;48.034;9.800;2023-04-24T00:28:27;4.15;;;0.85;;
20034;SDS011;10178;48.034;9.800;2023-04-24T00:30:53;1.17;;;0.80;;
20034;SDS011;10178;48.034;9.800;2023-04-24T00:33:19;0.95;;;0.60;;
20034;SDS011;10178;48.034;9.800;2023-04-24T00:35:45;1.95;;;0.88;;
20034;SDS011;10178;48.034;9.800;2023-04-24T00:38:10;1.20;;;0.70;;
20034;SDS011;10178;48.034;9.800;2023-04-24T00:40:36;1.25;;;0.85;;
20034;SDS011;10178;48.034;9.800;2023-04-24T00:43:02;2.15;;;0.85;;
20034;SDS011;10178;48.034;9.800;2023-04-24T00:45:27;1.50;;;1.00;;
20034;SDS011;10178;48.034;9.800;2023-04-24T00:47:53;1.45;;;0.82;;
20034;SDS011;10178;48.034;9.800;2023-04-24T00:50:19;2.22;;;1.10;;
20034;SDS011;10178;48.034;9.800;2023-04-24T00:52:46;6.85;;;2.25;;
20034;SDS011;10178;48.034;9.800;2023-04-24T00:55:12;0.90;;;0.80;;
20034;SDS011;10178;48.034;9.800;2023-04-24T00:57:38;1.42;;;1.00;;
20034;SDS011;10178;48.034;9.800;2023-04-24T01:00:05;0.98;;;0.82;;
20034;SDS011;10178;48.034;9.800;2023-04-24T01:02:35;1.85;;;1.00;;
20034;SDS011;10178;48.034;9.800;2023-04-24T01:05:04;5.25;;;0.80;;
20034;SDS011;10178;48.034;9.800;2023-04-24T01:07:32;0.90;;;0.82;;
20034;SDS011;10178;48.034;9.800;2023-04-24T01:09:58;2.75;;;1.40;;
20034;SDS011;10178;48.034;9.800;2023-04-24T01:12:24;1.67;;;0.75;;
20034;SDS011;10178;48.034;9.800;2023-04-24T01:14:49;1.55;;;0.70;;
20034;SDS011;10178;48.034;9.800;2023-04-24T01:17:15;1.35;;;1.23;;
20034;SDS011;10178;48.034;9.800;2023-04-24T01:19:41;0.80;;;0.70;;
20034;SDS011;10178;48.034;9.800;2023-04-24T01:22:13;1.17;;;0.65;;
20034;SDS011;10178;48.034;9.800;2023-04-24T01:24:40;4.03;;;0.90;;
20034;SDS011;10178;48.034;9.800;2023-04-24T01:27:06;0.65;;;0.60;;
20034;SDS011;10178;48.034;9.800;2023-04-24T01:29:33;0.88;;;0.63;;
20034;SDS011;10178;48.034;9.800;2023-04-24T01:31:59;0.68;;;0.60;;
20034;SDS011;10178;48.034;9.800;2023-04-24T01:34:25;0.75;;;0.75;;
20034;SDS011;10178;48.034;9.800;2023-04-24T01:36:51;1.42;;;0.63;;
20034;SDS011;10178;48.034;9.800;2023-04-24T01:39:17;0.45;;;0.40;;
20034;SDS011;10178;48.034;9.800;2023-04-24T01:41:43;0.85;;;0.50;;
20034;SDS011;10178;48.034;9.800;2023-04-24T01:44:08;0.70;;;0.70;;
20034;SDS011;10178;48.034;9.800;2023-04-24T01:46:34;3.70;;;0.60;;
20034;SDS011;10178;48.034;9.800;2023-04-24T01:49:00;0.77;;;0.65;;
20034;SDS011;10178;48.034;9.800;2023-04-24T01:51:27;0.70;;;0.60;;
20034;SDS011;10178;48.034;9.800;2023-04-24T01:53:52;1.95;;;0.80;;
20034;SDS011;10178;48.034;9.800;2023-04-24T01:56:19;0.70;;;0.70;;
20034;SDS011;10178;48.034;9.800;2023-04-24T01:58:46;0.90;;;0.60;;
20034;SDS011;10178;48.034;9.800;2023-04-24T02:01:18;1.23;;;0.80;;
20034;SDS011;10178;48.034;9.800;2023-04-24T02:03:45;2.28;;;0.75;;
20034;SDS011;10178;48.034;9.800;2023-04-24T02:06:10;1.25;;;0.68;;
20034;SDS011;10178;48.034;9.800;2023-04-24T02:08:36;1.45;;;1.13;;
20034;SDS011;10178;48.034;9.800;2023-04-24T02:11:02;1.20;;;1.00;;
20034;SDS011;10178;48.034;9.800;2023-04-24T02:13:28;1.75;;;0.90;;
20034;SDS011;10178;48.034;9.800;2023-04-24T02:15:53;0.85;;;0.85;;
20034;SDS011;10178;48.034;9.800;2023-04-24T02:18:19;1.15;;;0.90;;
20034;SDS011;10178;48.034;9.800;2023-04-24T02:20:45;0.70;;;0.70;;
20034;SDS011;10178;48.034;9.800;2023-04-24T02:23:11;3.03;;;0.60;;
20034;SDS011;10178;48.034;9.800;2023-04-24T02:25:38;1.40;;;0.80;;
20034;SDS011;10178;48.034;9.800;2023-04-24T02:28:03;0.60;;;0.60;;
20034;SDS011;10178;48.034;9.800;2023-04-24T02:30:29;1.35;;;0.82;;
20034;SDS011;10178;48.034;9.800;2023-04-24T02:32:55;0.65;;;0.65;;
20034;SDS011;10178;48.034;9.800;2023-04-24T02:35:21;1.63;;;0.70;;
20034;SDS011;10178;48.034;9.800;2023-04-24T02:37:46;0.75;;;0.75;;
20034;SDS011;10178;48.034;9.800;2023-04-24T02:40:12;2.67;;;0.80;;
20034;SDS011;10178;48.034;9.800;2023-04-24T02:42:38;1.33;;;0.75;;
20034;SDS011;10178;48.034;9.800;2023-04-24T02:45:03;0.93;;;0.70;;
20034;SDS011;10178;48.034;9.800;2023-04-24T02:47:30;4.75;;;0.98;;
20034;SDS011;10178;48.034;9.800;2023-04-24T02:49:55;1.25;;;0.90;;
20034;SDS011;10178;48.034;9.800;2023-04-24T02:52:21;1.58;;;1.00;;
20034;SDS011;10178;48.034;9.800;2023-04-24T02:54:47;0.80;;;0.80;;
20034;SDS011;10178;48.034;9.800;2023-04-24T02:57:12;3.28;;;0.98;;
20034;SDS011;10178;48.034;9.800;2023-04-24T02:59:38;2.17;;;0.80;;
20034;SDS011;10178;48.034;9.800;2023-04-24T03:02:03;0.80;;;0.80;;
20034;SDS011;10178;48.034;9.800;2023-04-24T03:04:29;1.00;;;0.93;;
20034;SDS011;10178;48.034;9.800;2023-04-24T03:06:54;1.42;;;0.90;;
20034;SDS011;10178;48.034;9.800;2023-04-24T03:09:20;1.65;;;0.98;;
20034;SDS011;10178;48.034;9.800;2023-04-24T03:11:47;2.00;;;0.85;;
20034;SDS011;10178;48.034;9.800;2023-04-24T03:14:14;2.05;;;1.67;;
20034;SDS011;10178;48.034;9.800;2023-04-24T03:16:40;3.30;;;0.80;;
20034;SDS011;10178;48.034;9.800;2023-04-24T03:19:05;3.22;;;0.80;;
20034;SDS011;10178;48.034;9.800;2023-04-24T03:21:31;0.93;;;0.80;;
20034;SDS011;10178;48.034;9.800;2023-04-24T03:23:56;2.17;;;0.85;;
20034;SDS011;10178;48.034;9.800;2023-04-24T03:26:22;1.33;;;0.80;;
20034;SDS011;10178;48.034;9.800;2023-04-24T03:28:48;1.85;;;0.65;;
20034;SDS011;10178;48.034;9.800;2023-04-24T03:31:13;2.53;;;0.60;;
20034;SDS011;10178;48.034;9.800;2023-04-24T03:33:40;3.40;;;0.80;;
20034;SDS011;10178;48.034;9.800;2023-04-24T03:36:06;0.70;;;0.60;;
20034;SDS011;10178;48.034;9.800;2023-04-24T03:38:31;0.50;;;0.50;;
20034;SDS011;10178;48.034;9.800;2023-04-24T03:40:57;1.42;;;0.60;;
20034;SDS011;10178;48.034;9.800;2023-04-24T03:43:23;0.52;;;0.52;;
20034;SDS011;10178;48.034;9.800;2023-04-24T03:45:48;0.60;;;0.60;;
20034;SDS011;10178;48.034;9.800;2023-04-24T03:48:14;0.95;;;0.70;;
20034;SDS011;10178;48.034;9.800;2023-04-24T03:50:40;0.82;;;0.63;;
20034;SDS011;10178;48.034;9.800;2023-04-24T03:53:05;1.42;;;0.50;;
20034;SDS011;10178;48.034;9.800;2023-04-24T03:55:31;0.55;;;0.55;;
20034;SDS011;10178;48.034;9.800;2023-04-24T03:57:57;2.55;;;1.00;;
20034;SDS011;10178;48.034;9.800;2023-04-24T04:00:23;1.42;;;0.60;;
20034;SDS011;10178;48.034;9.800;2023-04-24T04:02:48;0.60;;;0.50;;
20034;SDS011;10178;48.034;9.800;2023-04-24T04:05:14;3.30;;;0.68;;
20034;SDS011;10178;48.034;9.800;2023-04-24T04:07:40;1.05;;;0.40;;
20034;SDS011;10178;48.034;9.800;2023-04-24T04:10:05;2.55;;;0.45;;
20034;SDS011;10178;48.034;9.800;2023-04-24T04:12:32;3.55;;;0.50;;
20034;SDS011;10178;48.034;9.800;2023-04-24T04:14:58;1.20;;;0.75;;
20034;SDS011;10178;48.034;9.800;2023-04-24T04:17:23;1.35;;;0.50;;
20034;SDS011;10178;48.034;9.800;2023-04-24T04:19:49;0.60;;;0.60;;
20034;SDS011;10178;48.034;9.800;2023-04-24T04:22:15;2.58;;;0.50;;
20034;SDS011;10178;48.034;9.800;2023-04-24T04:24:41;1.23;;;0.50;;
20034;SDS011;10178;48.034;9.800;2023-04-24T04:27:07;2.90;;;0.68;;
20034;SDS011;10178;48.034;9.800;2023-04-24T04:29:34;2.13;;;0.68;;
20034;SDS011;10178;48.034;9.800;2023-04-24T04:32:00;1.25;;;0.73;;
20034;SDS011;10178;48.034;9.800;2023-04-24T04:34:27;0.88;;;0.55;;
20034;SDS011;10178;48.034;9.800;2023-04-24T04:36:53;1.25;;;0.52;;
20034;SDS011;10178;48.034;9.800;2023-04-24T04:39:18;0.80;;;0.52;;
20034;SDS011;10178;48.034;9.800;2023-04-24T04:41:44;4.57;;;0.60;;
20034;SDS011;10178;48.034;9.800;2023-04-24T04:44:13;0.68;;;0.40;;
20034;SDS011;10178;48.034;9.800;2023-04-24T04:46:39;1.60;;;0.63;;
20034;SDS011;10178;48.034;9.800;2023-04-24T04:49:06;0.45;;;0.45;;
20034;SDS011;10178;48.034;9.800;2023-04-24T04:51:33;0.52;;;0.52;;
20034;SDS011;10178;48.034;9.800;2023-04-24T04:53:59;2.65;;;0.77;;
20034;SDS011;10178;48.034;9.800;2023-04-24T04:56:25;0.60;;;0.60;;
20034;SDS011;10178;48.034;9.800;2023-04-24T04:58:51;0.95;;;0.50;;
20034;SDS011;10178;48.034;9.800;2023-04-24T05:01:17;0.52;;;0.52;;
20034;SDS011;10178;48.034;9.800;2023-04-24T05:03:43;1.20;;;0.50;;
20034;SDS011;10178;48.034;9.800;2023-04-24T05:06:08;0.50;;;0.50;;
20034;SDS011;10178;48.034;9.800;2023-04-24T05:08:34;0.50;;;0.47;;
20034;SDS011;10178;48.034;9.800;2023-04-24T05:10:59;0.40;;;0.40;;
20034;SDS011;10178;48.034;9.800;2023-04-24T05:13:25;1.33;;;0.50;;
20034;SDS011;10178;48.034;9.800;2023-04-24T05:15:51;1.02;;;0.40;;
20034;SDS011;10178;48.034;9.800;2023-04-24T05:18:16;0.85;;;0.50;;
20034;SDS011;10178;48.034;9.800;2023-04-24T05:20:42;1.73;;;0.60;;
20034;SDS011;10178;48.034;9.800;2023-04-24T05:23:09;0.50;;;0.40;;
20034;SDS011;10178;48.034;9.800;2023-04-24T05:25:35;0.65;;;0.65;;
20034;SDS011;10178;48.034;9.800;2023-04-24T05:28:01;0.50;;;0.50;;
20034;SDS011;10178;48.034;9.800;2023-04-24T05:30:27;1.05;;;0.55;;
20034;SDS011;10178;48.034;9.800;2023-04-24T05:32:53;0.57;;;0.57;;
20034;SDS011;10178;48.034;9.800;2023-04-24T05:35:19;0.50;;;0.50;;
20034;SDS011;10178;48.034;9.800;2023-04-24T05:37:44;2.92;;;0.40;;
20034;SDS011;10178;48.034;9.800;2023-04-24T05:40:10;5.50;;;0.70;;
20034;SDS011;10178;48.034;9.800;2023-04-24T05:42:36;0.40;;;0.40;;
20034;SDS011;10178;48.034;9.800;2023-04-24T05:45:01;1.23;;;0.60;;
20034;SDS011;10178;48.034;9.800;2023-04-24T05:47:28;1.77;;;0.38;;
20034;SDS011;10178;48.034;9.800;2023-04-24T05:49:53;0.45;;;0.40;;
20034;SDS011;10178;48.034;9.800;2023-04-24T05:52:19;0.47;;;0.47;;
20034;SDS011;10178;48.034;9.800;2023-04-24T05:54:45;0.82;;;0.60;;
20034;SDS011;10178;48.034;9.800;2023-04-24T05:57:10;0.63;;;0.57;;
20034;SDS011;10178;48.034;9.800;2023-04-24T05:59:36;0.40;;;0.40;;
20034;SDS011;10178;48.034;9.800;2023-04-24T06:02:05;0.98;;;0.50;;
20034;SDS011;10178;48.034;9.800;2023-04-24T06:04:32;0.32;;;0.32;;
20034;SDS011;10178;48.034;9.800;2023-04-24T06:06:57;0.30;;;0.30;;
20034;SDS011;10178;48.034;9.800;2023-04-24T06:09:24;1.48;;;0.88;;
20034;SDS011;10178;48.034;9.800;2023-04-24T06:11:50;0.73;;;0.50;;
20034;SDS011;10178;48.034;9.800;2023-04-24T06:14:18;1.08;;;0.82;;
20034;SDS011;10178;48.034;9.800;2023-04-24T06:16:44;0.60;;;0.50;;
20034;SDS011;10178;48.034;9.800;2023-04-24T06:19:10;1.30;;;0.70;;
20034;SDS011;10178;48.034;9.800;2023-04-24T06:21:35;1.48;;;0.50;;
20034;SDS011;10178;48.034;9.800;2023-04-24T06:24:01;1.95;;;0.40;;
20034;SDS011;10178;48.034;9.800;2023-04-24T06:26:29;1.42;;;0.85;;
20034;SDS011;10178;48.034;9.800;2023-04-24T06:28:54;0.60;;;0.60;;
20034;SDS011;10178;48.034;9.800;2023-04-24T06:31:20;0.47;;;0.47;;
20034;SDS011;10178;48.034;9.800;2023-04-24T06:33:46;0.60;;;0.45;;
20034;SDS011;10178;48.034;9.800;2023-04-24T06:36:13;0.47;;;0.47;;
20034;SDS011;10178;48.034;9.800;2023-04-24T06:38:38;0.65;;;0.30;;
20034;SDS011;10178;48.034;9.800;2023-04-24T06:41:04;0.30;;;0.30;;
20034;SDS011;10178;48.034;9.800;2023-04-24T06:43:30;3.90;;;0.40;;
20034;SDS011;10178;48.034;9.800;2023-04-24T06:45:57;0.90;;;0.52;;
20034;SDS011;10178;48.034;9.800;2023-04-24T06:48:23;0.52;;;0.50;;
20034;SDS011;10178;48.034;9.800;2023-04-24T06:50:50;0.65;;;0.60;;
20034;SDS011;10178;48.034;9.800;2023-04-24T06:53:16;0.80;;;0.60;;
20034;SDS011;10178;48.034;9.800;2023-04-24T06:55:41;0.70;;;0.70;;
20034;SDS011;10178;48.034;9.800;2023-04-24T06:58:08;0.65;;;0.60;;
20034;SDS011;10178;48.034;9.800;2023-04-24T07:00:34;1.15;;;0.60;;
20034;SDS011;10178;48.034;9.800;2023-04-24T07:03:00;0.70;;;0.70;;
20034;SDS011;10178;48.034;9.800;2023-04-24T07:05:25;0.65;;;0.60;;
20034;SDS011;10178;48.034;9.800;2023-04-24T07:07:51;0.50;;;0.50;;
20034;SDS011;10178;48.034;9.800;2023-04-24T07:10:17;0.68;;;0.68;;
20034;SDS011;10178;48.034;9.800;2023-04-24T07:12:43;0.85;;;0.70;;
20034;SDS011;10178;48.034;9.800;2023-04-24T07:15:09;1.15;;;0.80;;
20034;SDS011;10178;48.034;9.800;2023-04-24T07:17:35;0.70;;;0.68;;
20034;SDS011;10178;48.034;9.800;2023-04-24T07:20:03;0.77;;;0.45;;
20034;SDS011;10178;48.034;9.800;2023-04-24T07:22:29;0.60;;;0.60;;
20034;SDS011;10178;48.034;9.800;2023-04-24T07:24:55;1.13;;;0.80;;
20034;SDS011;10178;48.034;9.800;2023-04-24T07:27:20;1.05;;;0.70;;
20034;SDS011;10178;48.034;9.800;2023-04-24T07:29:46;1.55;;;0.60;;
20034;SDS011;10178;48.034;9.800;2023-04-24T07:32:12;2.08;;;0.70;;
20034;SDS011;10178;48.034;9.800;2023-04-24T07:34:37;0.70;;;0.70;;
20034;SDS011;10178;48.034;9.800;2023-04-24T07:37:03;2.35;;;0.70;;
20034;SDS011;10178;48.034;9.800;2023-04-24T07:39:29;0.80;;;0.80;;
20034;SDS011;10178;48.034;9.800;2023-04-24T07:41:55;0.50;;;0.50;;
20034;SDS011;10178;48.034;9.800;2023-04-24T07:44:20;1.70;;;0.60;;
20034;SDS011;10178;48.034;9.800;2023-04-24T07:46:46;0.70;;;0.70;;
20034;SDS011;10178;48.034;9.800;2023-04-24T07:49:12;1.15;;;0.75;;
20034;SDS011;10178;48.034;9.800;2023-04-24T07:51:37;1.92;;;0.70;;
20034;SDS011;10178;48.034;9.800;2023-04-24T07:54:04;1.15;;;0.77;;
20034;SDS011;10178;48.034;9.800;2023-04-24T07:56:33;0.90;;;0.60;;
20034;SDS011;10178;48.034;9.800;2023-04-24T07:58:58;2.53;;;0.50;;
20034;SDS011;10178;48.034;9.800;2023-04-24T08:01:26;2.83;;;0.90;;
20034;SDS011;10178;48.034;9.800;2023-04-24T08:03:51;0.65;;;0.60;;
20034;SDS011;10178;48.034;9.800;2023-04-24T08:06:17;0.90;;;0.75;;
20034;SDS011;10178;48.034;9.800;2023-04-24T08:08:43;2.25;;;0.60;;
20034;SDS011;10178;48.034;9.800;2023-04-24T08:11:08;1.75;;;0.73;;
20034;SDS011;10178;48.034;9.800;2023-04-24T08:13:34;0.73;;;0.73;;
20034;SDS011;10178;48.034;9.800;2023-04-24T08:16:00;0.50;;;0.50;;
20034;SDS011;10178;48.034;9.800;2023-04-24T08:18:25;1.90;;;0.85;;
20034;SDS011;10178;48.034;9.800;2023-04-24T08:20:51;0.75;;;0.75;;
20034;SDS011;10178;48.034;9.800;2023-04-24T08:23:17;2.45;;;0.90;;
20034;SDS011;10178;48.034;9.800;2023-04-24T08:25:42;1.75;;;0.75;;
20034;SDS011;10178;48.034;9.800;2023-04-24T08:28:08;0.65;;;0.60;;
20034;SDS011;10178;48.034;9.800;2023-04-24T08:30:35;1.73;;;0.88;;
20034;SDS011;10178;48.034;9.800;2023-04-24T08:33:01;2.75;;;0.70;;
20034;SDS011;10178;48.034;9.800;2023-04-24T08:35:27;1.38;;;0.93;;
20034;SDS011;10178;48.034;9.800;2023-04-24T08:37:53;1.58;;;0.57;;
20034;SDS011;10178;48.034;9.800;2023-04-24T08:40:19;2.22;;;0.70;;
20034;SDS011;10178;48.034;9.800;2023-04-24T08:42:51;2.13;;;0.77;;
20034;SDS011;10178;48.034;9.800;2023-04-24T08:45:20;1.10;;;0.52;;
20034;SDS011;10178;48.034;9.800;2023-04-24T08:47:46;1.13;;;0.63;;
20034;SDS011;10178;48.034;9.800;2023-04-24T08:50:14;0.65;;;0.60;;
20034;SDS011;10178;48.034;9.800;2023-04-24T08:52:41;1.20;;;1.10;;
20034;SDS011;10178;48.034;9.800;2023-04-24T08:55:07;5.32;;;0.68;;
20034;SDS011;10178;48.034;9.800;2023-04-24T08:57:33;1.85;;;1.02;;
20034;SDS011;10178;48.034;9.800;2023-04-24T09:00:00;2.30;;;0.52;;
20034;SDS011;10178;48.034;9.800;2023-04-24T09:02:26;2.35;;;0.57;;
20034;SDS011;10178;48.034;9.800;2023-04-24T09:04:53;0.70;;;0.57;;
20034;SDS011;10178;48.034;9.800;2023-04-24T09:07:22;3.65;;;0.90;;
20034;SDS011;10178;48.034;9.800;2023-04-24T09:09:51;1.98;;;1.00;;
20034;SDS011;10178;48.034;9.800;2023-04-24T09:12:17;6.32;;;1.08;;
20034;SDS011;10178;48.034;9.800;2023-04-24T09:14:44;2.78;;;0.80;;
20034;SDS011;10178;48.034;9.800;2023-04-24T09:17:10;0.93;;;0.93;;
20034;SDS011;10178;48.034;9.800;2023-04-24T09:19:36;1.73;;;0.80;;
20034;SDS011;10178;48.034;9.800;2023-04-24T09:22:06;1.20;;;0.68;;
20034;SDS011;10178;48.034;9.800;2023-04-24T09:24:33;1.90;;;0.80;;
20034;SDS011;10178;48.034;9.800;2023-04-24T09:26:59;1.20;;;0.88;;
20034;SDS011;10178;48.034;9.800;2023-04-24T09:29:29;1.52;;;0.80;;
20034;SDS011;10178;48.034;9.800;2023-04-24T09:31:55;1.50;;;0.88;;
20034;SDS011;10178;48.034;9.800;2023-04-24T09:34:21;4.13;;;0.90;;
20034;SDS011;10178;48.034;9.800;2023-04-24T09:36:48;1.88;;;1.00;;
20034;SDS011;10178;48.034;9.800;2023-04-24T09:39:15;2.42;;;0.85;;
20034;SDS011;10178;48.034;9.800;2023-04-24T09:41:52;1.15;;;0.88;;
20034;SDS011;10178;48.034;9.800;2023-04-24T09:44:25;2.53;;;0.70;;
20034;SDS011;10178;48.034;9.800;2023-04-24T09:49:25;3.63;;;1.20;;
20034;SDS011;10178;48.034;9.800;2023-04-24T09:51:52;4.07;;;1.15;;
20034;SDS011;10178;48.034;9.800;2023-04-24T09:54:34;1.15;;;0.90;;
20034;SDS011;10178;48.034;9.800;2023-04-24T09:57:04;1.85;;;1.08;;
20034;SDS011;10178;48.034;9.800;2023-04-24T09:59:32;1.10;;;1.00;;
20034;SDS011;10178;48.034;9.800;2023-04-24T10:01:57;1.77;;;1.02;;
20034;SDS011;10178;48.034;9.800;2023-04-24T10:04:26;1.27;;;1.17;;
20034;SDS011;10178;48.034;9.800;2023-04-24T10:06:54;1.38;;;1.13;;
20034;SDS011;10178;48.034;9.800;2023-04-24T10:09:21;1.60;;;1.15;;
20034;SDS011;10178;48.034;9.800;2023-04-24T10:11:50;4.20;;;1.20;;
20034;SDS011;10178;48.034;9.800;2023-04-24T10:14:19;2.97;;;1.25;;
20034;SDS011;10178;48.034;9.800;2023-04-24T10:16:46;3.55;;;1.45;;
20034;SDS011;10178;48.034;9.800;2023-04-24T10:19:13;1.15;;;1.10;;
20034;SDS011;10178;48.034;9.800;2023-04-24T10:21:40;1.58;;;0.80;;
20034;SDS011;10178;48.034;9.800;2023-04-24T10:24:08;5.18;;;1.00;;
20034;SDS011;10178;48.034;9.800;2023-04-24T10:26:35;3.40;;;1.33;;
20034;SDS011;10178;48.034;9.800;2023-04-24T10:29:02;1.98;;;1.00;;
20034;SDS011;10178;48.034;9.800;2023-04-24T10:31:31;0.80;;;0.80;;
20034;SDS011;10178;48.034;9.800;2023-04-24T10:33:58;2.58;;;1.10;;
20034;SDS011;10178;48.034;9.800;2023-04-24T10:36:26;1.23;;;1.00;;
20034;SDS011;10178;48.034;9.800;2023-04-24T10:38:54;5.53;;;1.27;;
20034;SDS011;10178;48.034;9.800;2023-04-24T10:41:21;1.35;;;1.02;;
20034;SDS011;10178;48.034;9.800;2023-04-24T10:46:32;2.47;;;0.93;;
20034;SDS011;10178;48.034;9.800;2023-04-24T10:48:57;2.33;;;1.10;;
20034;SDS011;10178;48.034;9.800;2023-04-24T10:51:24;1.77;;;0.90;;
20034;SDS011;10178;48.034;9.800;2023-04-24T10:56:52;3.72;;;1.20;;
20034;SDS011;10178;48.034;9.800;2023-04-24T10:59:25;2.10;;;1.20;;
20034;SDS011;10178;48.034;9.800;2023-04-24T11:01:53;1.77;;;0.90;;
20034;SDS011;10178;48.034;9.800;2023-04-24T11:04:29;3.35;;;0.98;;
20034;SDS011;10178;48.034;9.800;2023-04-24T11:06:56;1.92;;;1.08;;
20034;SDS011;10178;48.034;9.800;2023-04-24T11:09:22;3.35;;;1.30;;
20034;SDS011;10178;48.034;9.800;2023-04-24T11:12:02;3.20;;;1.30;;
20034;SDS011;10178;48.034;9.800;2023-04-24T11:17:37;3.55;;;1.17;;
20034;SDS011;10178;48.034;9.800;2023-04-24T11:20:08;1.25;;;1.15;;
20034;SDS011;10178;48.034;9.800;2023-04-24T11:22:36;2.65;;;1.00;;
20034;SDS011;10178;48.034;9.800;2023-04-24T11:25:04;1.35;;;1.10;;
20034;SDS011;10178;48.034;9.800;2023-04-24T11:27:34;8.15;;;1.25;;
20034;SDS011;10178;48.034;9.800;2023-04-24T11:30:07;1.60;;;1.33;;
20034;SDS011;10178;48.034;9.800;2023-04-24T11:37:53;2.80;;;1.30;;
20034;SDS011;10178;48.034;9.800;2023-04-24T11:40:19;1.42;;;1.33;;
20034;SDS011;10178;48.034;9.800;2023-04-24T11:42:50;1.65;;;1.20;;
20034;SDS011;10178;48.034;9.800;2023-04-24T11:47:44;1.42;;;1.05;;
20034;SDS011;10178;48.034;9.800;2023-04-24T11:50:14;2.65;;;1.40;;
20034;SDS011;10178;48.034;9.800;2023-04-24T11:52:42;3.53;;;1.25;;
20034;SDS011;10178;48.034;9.800;2023-04-24T11:57:59;2.55;;;1.30;;
20034;SDS011;10178;48.034;9.800;2023-04-24T12:00:25;3.90;;;1.40;;
20034;SDS011;10178;48.034;9.800;2023-04-24T12:03:04;4.15;;;1.20;;
20034;SDS011;10178;48.034;9.800;2023-04-24T12:05:33;1.33;;;1.02;;
20034;SDS011;10178;48.034;9.800;2023-04-24T12:08:02;1.13;;;1.08;;
20034;SDS011;10178;48.034;9.800;2023-04-24T12:10:28;1.63;;;1.20;;
20034;SDS011;10178;48.034;9.800;2023-04-24T12:12:56;1.45;;;1.10;;
20034;SDS011;10178;48.034;9.800;2023-04-24T12:15:22;1.00;;;0.90;;
20034;SDS011;10178;48.034;9.800;2023-04-24T12:17:50;1.77;;;1.17;;
20034;SDS011;10178;48.034;9.800;2023-04-24T12:20:17;1.92;;;1.20;;
20034;SDS011;10178;48.034;9.800;2023-04-24T12:22:52;1.10;;;1.05;;
20034;SDS011;10178;48.034;9.800;2023-04-24T12:25:20;1.92;;;1.10;;
20034;SDS011;10178;48.034;9.800;2023-04-24T12:30:43;4.50;;;1.40;;
20034;SDS011;10178;48.034;9.800;2023-04-24T12:33:17;3.10;;;1.30;;
20034;SDS011;10178;48.034;9.800;2023-04-24T12:35:44;3.22;;;1.30;;
20034;SDS011;10178;48.034;9.800;2023-04-24T12:38:13;2.13;;;1.30;;
20034;SDS011;10178;48.034;9.800;2023-04-24T12:40:41;1.67;;;1.17;;
20034;SDS011;10178;48.034;9.800;2023-04-24T12:43:17;2.40;;;1.13;;
20034;SDS011;10178;48.034;9.800;2023-04-24T12:45:44;1.83;;;1.08;;
20034;SDS011;10178;48.034;9.800;2023-04-24T12:48:10;1.33;;;1.15;;
20034;SDS011;10178;48.034;9.800;2023-04-24T12:50:36;1.50;;;0.80;;
20034;SDS011;10178;48.034;9.800;2023-04-24T12:53:03;3.33;;;1.20;;
20034;SDS011;10178;48.034;9.800;2023-04-24T12:55:28;2.85;;;0.90;;
20034;SDS011;10178;48.034;9.800;2023-04-24T12:57:54;1.20;;;0.80;;
20034;SDS011;10178;48.034;9.800;2023-04-24T13:00:21;2.67;;;0.80;;
20034;SDS011;10178;48.034;9.800;2023-04-24T13:02:46;1.65;;;1.02;;
20034;SDS011;10178;48.034;9.800;2023-04-24T13:05:12;1.65;;;1.10;;
20034;SDS011;10178;48.034;9.800;2023-04-24T13:07:38;3.30;;;1.00;;
20034;SDS011;10178;48.034;9.800;2023-04-24T13:10:05;2.10;;;1.05;;
20034;SDS011;10178;48.034;9.800;2023-04-24T13:12:31;2.55;;;1.13;;
20034;SDS011;10178;48.034;9.800;2023-04-24T13:14:57;2.38;;;0.90;;
20034;SDS011;10178;48.034;9.800;2023-04-24T13:17:23;3.10;;;1.00;;
20034;SDS011;10178;48.034;9.800;2023-04-24T13:19:49;4.13;;;1.08;;
20034;SDS011;10178;48.034;9.800;2023-04-24T13:22:16;3.33;;;1.00;;
20034;SDS011;10178;48.034;9.800;2023-04-24T13:24:43;0.75;;;0.73;;
20034;SDS011;10178;48.034;9.800;2023-04-24T13:27:09;1.42;;;1.00;;
20034;SDS011;10178;48.034;9.800;2023-04-24T13:29:36;3.33;;;0.95;;
20034;SDS011;10178;48.034;9.800;2023-04-24T13:32:02;3.22;;;1.13;;
20034;SDS011;10178;48.034;9.800;2023-04-24T13:34:28;1.38;;;0.90;;
20034;SDS011;10178;48.034;9.800;2023-04-24T13:36:54;3.83;;;0.88;;
20034;SDS011;10178;48.034;9.800;2023-04-24T13:39:21;0.85;;;0.70;;
20034;SDS011;10178;48.034;9.800;2023-04-24T13:41:48;1.65;;;0.90;;
20034;SDS011;10178;48.034;9.800;2023-04-24T13:44:14;2.47;;;0.77;;
20034;SDS011;10178;48.034;9.800;2023-04-24T13:46:41;1.25;;;0.80;;
20034;SDS011;10178;48.034;9.800;2023-04-24T13:49:09;0.70;;;0.70;;
20034;SDS011;10178;48.034;9.800;2023-04-24T13:51:35;0.80;;;0.80;;
20034;SDS011;10178;48.034;9.800;2023-04-24T13:54:00;2.45;;;0.80;;
20034;SDS011;10178;48.034;9.800;2023-04-24T13:56:26;2.45;;;1.02;;
20034;SDS011;10178;48.034;9.800;2023-04-24T13:58:52;1.77;;;0.80;;
20034;SDS011;10178;48.034;9.800;2023-04-24T14:01:19;1.80;;;0.75;;
20034;SDS011;10178;48.034;9.800;2023-04-24T14:03:49;2.90;;;0.90;;
20034;SDS011;10178;48.034;9.800;2023-04-24T14:06:14;0.70;;;0.70;;
20034;SDS011;10178;48.034;9.800;2023-04-24T14:08:40;1.35;;;0.70;;
20034;SDS011;10178;48.034;9.800;2023-04-24T14:11:06;1.27;;;0.80;;
20034;SDS011;10178;48.034;9.800;2023-04-24T14:13:31;0.73;;;0.73;;
20034;SDS011;10178;48.034;9.800;2023-04-24T14:15:57;1.38;;;0.90;;
20034;SDS011;10178;48.034;9.800;2023-04-24T14:18:23;1.38;;;0.98;;
20034;SDS011;10178;48.034;9.800;2023-04-24T14:20:49;3.05;;;0.98;;
20034;SDS011;10178;48.034;9.800;2023-04-24T14:23:15;1.75;;;0.65;;
20034;SDS011;10178;48.034;9.800;2023-04-24T14:25:41;3.38;;;0.73;;
20034;SDS011;10178;48.034;9.800;2023-04-24T14:28:06;2.10;;;0.85;;
20034;SDS011;10178;48.034;9.800;2023-04-24T14:30:32;0.98;;;0.88;;
20034;SDS011;10178;48.034;9.800;2023-04-24T14:32:58;0.95;;;0.80;;
20034;SDS011;10178;48.034;9.800;2023-04-24T14:35:23;1.23;;;0.90;;
20034;SDS011;10178;48.034;9.800;2023-04-24T14:37:49;4.60;;;0.95;;
20034;SDS011;10178;48.034;9.800;2023-04-24T14:40:15;1.10;;;1.00;;
20034;SDS011;10178;48.034;9.800;2023-04-24T14:42:40;1.05;;;0.95;;
20034;SDS011;10178;48.034;9.800;2023-04-24T14:45:06;2.47;;;0.88;;
20034;SDS011;10178;48.034;9.800;2023-04-24T14:47:33;1.55;;;0.90;;
20034;SDS011;10178;48.034;9.800;2023-04-24T14:49:58;1.30;;;1.20;;
20034;SDS011;10178;48.034;9.800;2023-04-24T14:52:24;1.63;;;0.98;;
20034;SDS011;10178;48.034;9.800;2023-04-24T14:54:50;0.93;;;0.90;;
20034;SDS011;10178;48.034;9.800;2023-04-24T14:57:16;0.80;;;0.80;;
20034;SDS011;10178;48.034;9.800;2023-04-24T14:59:41;3.58;;;1.13;;
20034;SDS011;10178;48.034;9.800;2023-04-24T15:02:07;2.17;;;1.02;;
20034;SDS011;10178;48.034;9.800;2023-04-24T15:04:33;1.02;;;0.88;;
20034;SDS011;10178;48.034;9.800;2023-04-24T15:06:58;0.82;;;0.70;;
20034;SDS011;10178;48.034;9.800;2023-04-24T15:09:24;1.08;;;0.88;;